createdAt,value
2019-05-23T00:03:40.026Z,4.13
2019-05-23T00:08:45.879Z,5.10
2019-05-23T00:13:52.255Z,4.77
2019-05-23T00:18:57.258Z,4.03
2019-05-23T00:24:04.199Z,5.67
2019-05-23T00:29:10.961Z,6.50
2019-05-23T00:34:15.286Z,5.63
2019-05-23T00:39:20.064Z,7.70
2019-05-23T00:44:25.243Z,6.10
2019-05-23T00:49:30.826Z,7.13
2019-05-23T00:54:35.459Z,6.00
2019-05-23T00:59:40.342Z,7.80
2019-05-23T01:04:44.791Z,8.90
2019-05-23T01:09:49.679Z,6.93
2019-05-23T01:14:54.499Z,5.00
2019-05-23T01:20:00.070Z,5.57
2019-05-23T01:25:04.539Z,8.27
2019-05-23T01:30:12.758Z,7.00
2019-05-23T01:35:20.221Z,5.27
2019-05-23T01:40:25.101Z,6.43
2019-05-23T01:45:30.501Z,5.20
2019-05-23T01:50:34.972Z,6.67
2019-05-23T01:55:38.932Z,5.20
2019-05-23T02:00:44.258Z,4.30
2019-05-23T02:05:48.200Z,5.10
2019-05-23T02:10:52.583Z,5.37
2019-05-23T02:15:57.897Z,4.80
2019-05-23T02:21:02.096Z,5.37
2019-05-23T02:26:07.242Z,4.50
2019-05-23T02:31:12.217Z,5.40
2019-05-23T02:36:16.564Z,6.20
2019-05-23T02:41:46.404Z,5.30
2019-05-23T02:47:22.284Z,7.83
2019-05-23T02:52:42.289Z,6.40
2019-05-23T02:57:47.700Z,5.80
2019-05-23T03:02:54.625Z,5.50
2019-05-23T03:08:00.552Z,5.03
2019-05-23T03:13:06.372Z,6.77
2019-05-23T03:18:13.127Z,5.40
2019-05-23T03:23:17.827Z,5.33
2019-05-23T03:28:25.955Z,5.70
2019-05-23T03:33:31.911Z,9.07
2019-05-23T03:38:37.183Z,9.20
2019-05-23T03:43:42.843Z,6.20
2019-05-23T03:48:47.588Z,6.77
2019-05-23T03:53:51.950Z,6.03
2019-05-23T03:58:56.767Z,6.70
2019-05-23T04:04:02.158Z,6.30
2019-05-23T04:09:07.876Z,8.03
2019-05-23T04:14:12.272Z,6.93
2019-05-23T04:19:16.897Z,7.17
2019-05-23T04:24:21.141Z,6.90
2019-05-23T04:29:25.799Z,6.77
2019-05-23T04:34:30.850Z,6.30
2019-05-23T04:39:35.143Z,6.60
2019-05-23T04:44:43.818Z,7.20
2019-05-23T04:49:45.766Z,6.30
2019-05-23T04:54:50.449Z,5.80
2019-05-23T04:59:55.264Z,6.40
2019-05-23T05:04:59.811Z,7.47
2019-05-23T05:10:04.690Z,6.50
2019-05-23T05:15:09.703Z,5.90
2019-05-23T05:20:14.294Z,7.43
2019-05-23T05:25:18.294Z,6.33
2019-05-23T05:30:22.358Z,7.37
2019-05-23T05:35:27.234Z,5.23
2019-05-23T05:40:31.486Z,6.83
2019-05-23T05:45:35.411Z,5.83
2019-05-23T05:50:39.743Z,8.27
2019-05-23T05:55:44.514Z,10.80
2019-05-23T06:00:58.843Z,7.60
2019-05-23T06:06:17.039Z,7.07
2019-05-23T06:11:21.437Z,6.83
2019-05-23T06:16:25.859Z,6.50
2019-05-23T06:21:30.510Z,8.43
2019-05-23T06:26:34.796Z,7.40
2019-05-23T06:31:40.122Z,6.40
2019-05-23T06:36:44.703Z,7.40
2019-05-23T06:41:48.758Z,5.83
2019-05-23T06:46:53.087Z,5.50
2019-05-23T06:51:57.603Z,6.27
2019-05-23T06:57:01.653Z,5.80
2019-05-23T07:02:05.708Z,6.00
2019-05-23T07:07:11.499Z,5.27
2019-05-23T07:12:15.490Z,5.20
2019-05-23T07:17:21.510Z,5.90
2019-05-23T07:22:27.597Z,5.50
2019-05-23T07:27:32.126Z,6.10
2019-05-23T07:32:36.180Z,6.80
2019-05-23T07:37:40.418Z,5.93
2019-05-23T07:42:45.031Z,7.20
2019-05-23T07:47:49.551Z,6.47
2019-05-23T07:52:56.620Z,7.13
2019-05-23T07:58:02.757Z,5.67
2019-05-23T08:03:09.755Z,8.37
2019-05-23T08:08:13.691Z,6.20
2019-05-23T08:13:17.755Z,6.33
2019-05-23T08:18:22.174Z,7.37
2019-05-23T08:23:26.447Z,9.53
2019-05-23T08:28:31.120Z,15.93
2019-05-23T08:33:36.171Z,15.13
2019-05-23T08:38:40.934Z,17.60
2019-05-23T08:43:45.176Z,19.10
2019-05-23T08:48:49.266Z,17.30
2019-05-23T08:53:53.401Z,19.63
2019-05-23T08:58:57.597Z,29.73
2019-05-23T09:04:01.895Z,30.37
2019-05-23T09:09:27.915Z,26.37
2019-05-23T09:14:13.768Z,21.27
2019-05-23T09:19:18.025Z,20.50
2019-05-23T09:24:22.018Z,17.60
2019-05-23T09:29:26.165Z,14.70
2019-05-23T09:34:30.565Z,19.90
2019-05-23T09:39:36.384Z,21.73
2019-05-23T09:44:40.370Z,21.57
2019-05-23T09:49:53.908Z,17.13
2019-05-23T09:54:50.021Z,16.20
2019-05-23T09:59:56.885Z,20.40
2019-05-23T10:05:00.161Z,15.13
2019-05-23T10:10:04.920Z,20.23
2019-05-23T10:15:14.573Z,13.27
2019-05-23T10:20:20.418Z,11.50
2019-05-23T10:25:24.279Z,10.57
2019-05-23T10:30:29.217Z,13.07
2019-05-23T10:35:33.717Z,8.27
2019-05-23T10:40:38.624Z,7.10
2019-05-23T10:45:42.945Z,8.73
2019-05-23T10:50:47.414Z,14.30
2019-05-23T10:55:51.607Z,11.83
2019-05-23T11:00:56.155Z,10.30
2019-05-23T11:06:14.923Z,7.23
2019-05-23T11:11:07.313Z,6.70
2019-05-23T11:16:11.620Z,6.93
2019-05-23T11:21:15.542Z,6.20
2019-05-23T11:26:19.850Z,11.37
2019-05-23T11:31:24.238Z,6.53
2019-05-23T11:36:35.531Z,9.83
2019-05-23T11:41:34.545Z,7.43
2019-05-23T11:46:39.443Z,7.57
2019-05-23T11:51:44.023Z,6.43
2019-05-23T11:56:48.788Z,6.33
2019-05-23T12:02:07.345Z,7.10
2019-05-23T12:07:16.218Z,5.50
2019-05-23T12:12:20.667Z,6.17
2019-05-23T12:17:26.427Z,6.90
2019-05-23T12:22:30.672Z,10.33
2019-05-23T12:27:35.356Z,7.80
2019-05-23T12:32:40.232Z,7.23
2019-05-23T12:37:44.216Z,6.53
2019-05-23T12:42:48.573Z,8.03
2019-05-23T12:48:06.468Z,6.77
2019-05-23T12:53:12.812Z,7.77
2019-05-23T12:58:18.697Z,7.60
2019-05-23T13:03:23.909Z,5.20
2019-05-23T13:08:28.607Z,5.93
2019-05-23T13:13:32.530Z,7.10
2019-05-23T13:18:36.664Z,17.42
2019-05-23T13:23:40.951Z,17.67
2019-05-23T13:28:45.336Z,143.97
2019-05-23T13:33:49.328Z,336.07
2019-05-23T13:38:53.887Z,281.37
2019-05-23T13:43:58.128Z,347.73
2019-05-23T13:49:02.493Z,410.47
2019-05-23T13:54:06.799Z,394.70
2019-05-23T13:59:10.890Z,330.70
2019-05-23T14:04:15.493Z,257.17
2019-05-23T14:09:20.431Z,226.17
2019-05-23T14:14:24.523Z,185.67
2019-05-23T14:19:29.636Z,222.30
2019-05-23T14:24:37.671Z,168.63
2019-05-23T14:29:39.733Z,177.83
2019-05-23T14:34:44.290Z,145.13
2019-05-23T14:39:51.676Z,140.27
2019-05-23T14:44:55.819Z,131.33
2019-05-23T14:50:20.499Z,105.60
2019-05-23T14:55:24.833Z,89.63
2019-05-23T15:00:29.458Z,101.63
2019-05-23T15:05:34.415Z,79.00
2019-05-23T15:10:38.428Z,45.83
2019-05-23T15:15:43.235Z,52.37
2019-05-23T15:20:47.662Z,51.90
2019-05-23T15:25:51.592Z,51.63
2019-05-23T15:30:55.470Z,70.50
2019-05-23T15:35:59.765Z,118.77
2019-05-23T15:41:04.467Z,118.33
2019-05-23T15:46:08.807Z,105.43
2019-05-23T15:51:15.495Z,73.83
2019-05-23T15:56:39.057Z,78.43
2019-05-23T16:01:49.127Z,58.10
2019-05-23T16:06:53.429Z,57.30
2019-05-23T16:11:57.555Z,41.47
2019-05-23T16:17:02.280Z,25.40
2019-05-23T16:22:06.812Z,28.47
2019-05-23T16:27:12.370Z,29.40
2019-05-23T16:32:16.732Z,27.90
2019-05-23T16:37:21.078Z,28.90
2019-05-23T16:42:25.145Z,22.58
2019-05-23T16:47:29.654Z,17.63
2019-05-23T16:52:34.294Z,21.70
2019-05-23T16:57:44.468Z,16.03
2019-05-23T17:03:13.569Z,17.20
2019-05-23T17:08:36.457Z,13.13
2019-05-23T17:13:45.895Z,16.87
2019-05-23T17:18:55.478Z,17.40
2019-05-23T17:24:18.052Z,32.30
2019-05-23T17:29:30.480Z,26.67
2019-05-23T17:34:34.577Z,23.27
2019-05-23T17:39:40.233Z,20.63
2019-05-23T17:44:44.377Z,21.30
2019-05-23T17:49:48.734Z,18.60
2019-05-23T17:54:52.910Z,14.57
2019-05-23T17:59:57.554Z,14.00
2019-05-23T18:05:01.893Z,13.67
2019-05-23T18:10:07.072Z,11.03
2019-05-23T18:15:13.399Z,15.93
2019-05-23T18:20:17.890Z,11.20
2019-05-23T18:25:22.711Z,12.00
2019-05-23T18:30:45.991Z,12.63
2019-05-23T18:35:52.279Z,10.50
2019-05-23T18:41:04.135Z,10.63
2019-05-23T18:46:04.668Z,10.17
2019-05-23T18:51:08.518Z,11.73
2019-05-23T18:56:12.484Z,10.63
2019-05-23T19:01:22.664Z,9.97
2019-05-23T19:06:27.402Z,12.63
2019-05-23T19:11:31.289Z,10.37
2019-05-23T19:16:35.677Z,9.03
2019-05-23T19:21:40.083Z,8.53
2019-05-23T19:26:45.410Z,7.33
2019-05-23T19:31:49.577Z,7.70
2019-05-23T19:36:53.422Z,6.90
2019-05-23T19:41:57.360Z,6.97
2019-05-23T19:47:01.709Z,6.80
2019-05-23T19:52:06.837Z,7.50
2019-05-23T19:57:10.767Z,10.53
2019-05-23T20:02:37.455Z,6.53
2019-05-23T20:07:41.671Z,6.47
2019-05-23T20:12:45.683Z,6.50
2019-05-23T20:17:51.716Z,6.40
2019-05-23T20:22:56.470Z,6.30
2019-05-23T20:28:00.411Z,6.60
2019-05-23T20:33:04.672Z,6.23
2019-05-23T20:38:08.733Z,5.53
2019-05-23T20:43:12.944Z,5.20
2019-05-23T20:48:17.468Z,6.83
2019-05-23T20:53:21.463Z,7.50
2019-05-23T20:58:26.569Z,6.80
2019-05-23T21:03:34.687Z,6.30
2019-05-23T21:08:37.400Z,5.50
2019-05-23T21:13:42.036Z,5.07
2019-05-23T21:18:49.611Z,5.70
2019-05-23T21:23:56.678Z,5.03
2019-05-23T21:28:57.648Z,4.87
2019-05-23T21:34:01.937Z,5.27
2019-05-23T21:39:09.635Z,5.00
2019-05-23T21:44:13.878Z,4.40
2019-05-23T21:49:17.926Z,5.30
2019-05-23T21:54:21.803Z,5.23
2019-05-23T21:59:26.072Z,7.10
2019-05-23T22:04:55.324Z,4.10
2019-05-23T22:09:59.359Z,5.77
2019-05-23T22:15:04.673Z,4.47
2019-05-23T22:20:08.686Z,3.80
2019-05-23T22:25:15.915Z,3.37
2019-05-23T22:30:19.948Z,3.70
2019-05-23T22:35:24.580Z,4.07
2019-05-23T22:40:28.657Z,6.13
2019-05-23T22:45:33.259Z,3.97
2019-05-23T22:50:37.311Z,4.13
2019-05-23T22:55:41.267Z,4.57
2019-05-23T23:00:47.872Z,4.60
2019-05-23T23:05:51.891Z,4.53
2019-05-23T23:10:55.924Z,9.30
2019-05-23T23:16:00.185Z,4.53
2019-05-23T23:21:04.623Z,3.63
2019-05-23T23:26:09.179Z,4.00
2019-05-23T23:31:13.608Z,4.60
2019-05-23T23:36:17.535Z,5.30
2019-05-23T23:41:21.460Z,3.83
2019-05-23T23:46:43.304Z,4.50
2019-05-23T23:52:05.189Z,4.07
2019-05-23T23:57:27.078Z,4.63
